Argent Gerbera — V7UC4 — position and weather

sailwx.info

Track history (hours):
 
Tides and Currents Weather Stations Pressure Air Temp Water Temp Dewpoint Dewpoint Depression Visibility Wind Speed Wind Dir Waves Ship Positions

Argent Gerbera

Last reported at 2017-Sep-07 05:01 UTC. Time now 2017-Sep-22 18:47 UTC.
Position N 48°31' W 126°15'.
Warning: this ship's position is 15 days out of date.

Length 175 m; draft 11.7 m.

Type: Ship (hazmat cat B). MMSI: 538003929.

Date/timePositionNaut miles runAvg speedWind from/ knotsBaromVisibWave heightAir tempDewpointWater temp
2017-Sep-07 05:01N 48°31' W 126°15'113.4
2017-Sep-07 04:58N 48°31' W 126°14'613.5
2017-Sep-07 04:30N 48°32' W 126°05'713.5
2017-Sep-07 04:00N 48°32' W 125°55'713.6
2017-Sep-07 03:31N 48°31' W 125°44'714.0
2017-Sep-07 03:00N 48°31' W 125°34'713.7
2017-Sep-07 02:30N 48°32' W 125°23'713.6
2017-Sep-07 02:00N 48°32' W 125°13'713.3
2017-Sep-07 01:30N 48°31' W 125°03'714.6
2017-Sep-07 01:00N 48°31' W 124°52'713.8
2017-Sep-07 00:30N 48°30' W 124°42'713.5
2017-Sep-07 00:00N 48°28' W 124°33'713.2
2017-Sep-06 23:30N 48°25' W 124°23'612.6
2017-Sep-06 23:00N 48°23' W 124°15'612.1
2017-Sep-06 22:30N 48°20' W 124°06'612.2
2017-Sep-06 22:00N 48°18' W 123°58'612.4
2017-Sep-06 21:30N 48°17' W 123°48'712.7
2017-Sep-06 20:58N 48°16' W 123°38'511.5
2017-Sep-06 20:30N 48°16' W 123°30'611.8
2017-Sep-06 20:00N 48°21' W 123°25'4 8.5
2017-Sep-06 19:31N 48°23' W 123°20'510.7
2017-Sep-06 19:01N 48°25' W 123°12'713.1
2017-Sep-06 18:30N 48°32' W 123°13'713.6
2017-Sep-06 18:01N 48°38' W 123°15'611.6
2017-Sep-06 17:31N 48°43' W 123°11'815.2
2017-Sep-06 17:00N 48°47' W 123°01'612.7
2017-Sep-06 16:31N 48°53' W 123°06'714.0
2017-Sep-06 16:00N 48°57' W 123°14'714.0
2017-Sep-06 15:31N 49°02' W 123°21'612.6
2017-Sep-06 15:01N 49°08' W 123°23'713.5
2017-Sep-06 14:31N 49°15' W 123°21'612.2
2017-Sep-06 14:00N 49°19' W 123°14'510.8
2017-Sep-06 13:31N 49°18' W 123°06'3 5.2
2017-Sep-06 13:01N 49°18' W 123°02'3 5.1
2017-Sep-06 12:31N 49°18' W 122°58'3 5.7
2017-Sep-06 12:00N 49°18' W 122°53'1 1.5
2017-Sep-06 11:29N 49°17' W 122°52'0 0.0
2017-Sep-06 10:59N 49°17' W 122°52'0 0.0
2017-Sep-06 10:29N 49°17' W 122°52'0 0.0
2017-Sep-06 09:59N 49°17' W 122°52'0 0.0
2017-Sep-06 09:29N 49°17' W 122°52'0 0.0
2017-Sep-06 08:59N 49°17' W 122°52'0 0.0
2017-Sep-06 08:26N 49°17' W 122°52'0 0.0
2017-Sep-06 07:59N 49°17' W 122°52'0 0.1
2017-Sep-06 07:29N 49°17' W 122°52'0 0.0
2017-Sep-06 06:59N 49°17' W 122°52'0 0.0
2017-Sep-06 06:29N 49°17' W 122°52'0 0.0
2017-Sep-06 05:56N 49°17' W 122°52'0 0.0
2017-Sep-06 05:29N 49°17' W 122°52'0 0.0
2017-Sep-06 04:59N 49°17' W 122°52'0 0.0
2017-Sep-06 04:26N 49°17' W 122°52'0 0.0
2017-Sep-06 03:53N 49°17' W 122°52'0 0.0
2017-Sep-06 03:29N 49°17' W 122°52'0 0.0
2017-Sep-06 02:59N 49°17' W 122°52'0 0.0
2017-Sep-06 02:26N 49°17' W 122°52'0 0.0
2017-Sep-06 01:59N 49°17' W 122°52'0 0.0
2017-Sep-06 01:29N 49°17' W 122°52'0 0.0
2017-Sep-06 00:59N 49°17' W 122°52'0 0.0
2017-Sep-06 00:29N 49°17' W 122°52'0 0.0
2017-Sep-05 23:50N 49°17' W 122°52'0 0.0
2017-Sep-05 23:23N 49°17' W 122°52'0 0.0
2017-Sep-05 22:59N 49°17' W 122°52'0 0.0
2017-Sep-05 22:26N 49°17' W 122°52'0 0.0
2017-Sep-05 21:59N 49°17' W 122°52'0 0.0
2017-Sep-05 21:26N 49°17' W 122°52'0 0.0
2017-Sep-05 20:56N 49°17' W 122°52'0 0.0
2017-Sep-05 20:29N 49°17' W 122°52'0 0.0
2017-Sep-05 19:56N 49°17' W 122°52'0 0.0
2017-Sep-05 19:29N 49°17' W 122°52'0 0.0
2017-Sep-05 18:56N 49°17' W 122°52'0 0.0
2017-Sep-05 18:26N 49°17' W 122°52'0 0.0
2017-Sep-05 17:59N 49°17' W 122°52'0 0.0
2017-Sep-05 17:29N 49°17' W 122°52'0 0.0
2017-Sep-05 16:59N 49°17' W 122°52'0 0.0
2017-Sep-05 16:29N 49°17' W 122°52'0 0.0
2017-Sep-05 15:59N 49°17' W 122°52'0 0.0
2017-Sep-05 15:29N 49°17' W 122°52'0 0.0
2017-Sep-05 14:59N 49°17' W 122°52'0 0.0
2017-Sep-05 14:29N 49°17' W 122°52'0 0.0
2017-Sep-05 13:59N 49°17' W 122°52'0 0.0
2017-Sep-05 13:29N 49°17' W 122°52'0 0.0
2017-Sep-05 12:59N 49°17' W 122°52'0 0.0
2017-Sep-05 12:26N 49°17' W 122°52'0 0.0
2017-Sep-05 11:59N 49°17' W 122°52'0 0.0
2017-Sep-05 11:26N 49°17' W 122°52'0 0.0
2017-Sep-05 10:59N 49°17' W 122°52'0 0.0
2017-Sep-05 10:29N 49°17' W 122°52'0 0.0
2017-Sep-05 09:59N 49°17' W 122°52'0 0.0
2017-Sep-05 09:29N 49°17' W 122°52'0 0.0
2017-Sep-05 08:59N 49°17' W 122°52'0 0.0
2017-Sep-05 08:26N 49°17' W 122°52'0 0.0
2017-Sep-05 07:56N 49°17' W 122°52'0 0.1
2017-Sep-05 07:26N 49°17' W 122°52'0 0.0
2017-Sep-05 06:56N 49°17' W 122°52'0 0.0
2017-Sep-05 06:29N 49°17' W 122°52'0 0.0
2017-Sep-05 05:59N 49°17' W 122°52'0 0.0
2017-Sep-05 05:29N 49°17' W 122°52'0 0.1
2017-Sep-05 04:59N 49°17' W 122°52'0 0.0
2017-Sep-05 04:26N 49°17' W 122°52'0 0.0
2017-Sep-05 03:59N 49°17' W 122°52'0 0.0
2017-Sep-05 03:20N 49°17' W 122°52'0 0.0
2017-Sep-05 02:56N 49°17' W 122°52'0 0.0
2017-Sep-05 02:26N 49°17' W 122°52'0 0.0
2017-Sep-05 01:59N 49°17' W 122°52'0 0.0
2017-Sep-05 01:26N 49°17' W 122°52'0 0.0
2017-Sep-05 00:56N 49°17' W 122°52'0 0.0
2017-Sep-05 00:26N 49°17' W 122°52'0 0.0
2017-Sep-04 23:56N 49°17' W 122°52'0 0.0
2017-Sep-04 23:26N 49°17' W 122°52'0 0.0
2017-Sep-04 22:56N 49°17' W 122°52'0 0.0
2017-Sep-04 22:23N 49°17' W 122°52'0 0.0
2017-Sep-04 21:56N 49°17' W 122°52'0 0.0
2017-Sep-04 21:26N 49°17' W 122°52'0 0.0
2017-Sep-04 20:56N 49°17' W 122°52'0 0.0
2017-Sep-04 20:29N 49°17' W 122°52'0 0.0
2017-Sep-04 20:00N 49°17' W 122°52'0 0.5
2017-Sep-04 19:30N 49°18' W 122°52'2 4.3
2017-Sep-04 19:00N 49°18' W 122°56'4 7.9
2017-Sep-04 18:30N 49°18' W 123°02'0 0.2
2017-Sep-04 17:52N 49°18' W 123°02'0 0.0
2017-Sep-04 17:28N 49°18' W 123°02'0 0.0
2017-Sep-04 16:46N 49°18' W 123°02'0 0.0
2017-Sep-04 16:25N 49°18' W 123°02'0 0.0
2017-Sep-04 15:58N 49°18' W 123°02'0 0.0
2017-Sep-04 15:28N 49°18' W 123°02'0 0.0
2017-Sep-04 14:55N 49°18' W 123°02'0 0.0
2017-Sep-04 14:28N 49°18' W 123°02'0 0.0
2017-Sep-04 13:49N 49°18' W 123°02'0 0.0
2017-Sep-04 13:28N 49°18' W 123°02'0 0.0
2017-Sep-04 12:43N 49°18' W 123°02'0 0.0
2017-Sep-04 08:55N 49°18' W 123°02'0 0.0
2017-Sep-04 08:25N 49°18' W 123°02'0 0.0
2017-Sep-04 07:55N 49°18' W 123°02'0 0.0
2017-Sep-04 07:25N 49°18' W 123°02'0 0.0
2017-Sep-04 06:58N 49°18' W 123°02'0 0.0
2017-Sep-04 06:28N 49°18' W 123°02'0 0.0
2017-Sep-04 05:52N 49°18' W 123°02'0 0.0
2017-Sep-04 05:01N 49°18' W 123°02'0 0.1
2017-Sep-04 04:55N 49°18' W 123°02'0 0.0
2017-Sep-04 04:25N 49°18' W 123°02'0 0.0
2017-Sep-04 03:55N 49°18' W 123°02'0 0.0
2017-Sep-04 03:25N 49°18' W 123°02'0 0.0
2017-Sep-04 02:58N 49°18' W 123°02'0 0.0
2017-Sep-04 02:25N 49°18' W 123°02'0 0.0
2017-Sep-04 01:58N 49°18' W 123°02'0 0.0
2017-Sep-04 01:25N 49°18' W 123°02'0 0.0
2017-Sep-04 00:52N 49°18' W 123°02'0 0.0
2017-Sep-04 00:25N 49°18' W 123°02'0 0.0
2017-Sep-03 23:58N 49°18' W 123°02'0 0.0
2017-Sep-03 23:28N 49°18' W 123°02'0 0.0
2017-Sep-03 22:58N 49°18' W 123°02'0 0.0
2017-Sep-03 22:28N 49°18' W 123°02'0 0.0
2017-Sep-03 21:49N 49°18' W 123°02'0 0.0
2017-Sep-03 21:28N 49°18' W 123°02'0 0.0
2017-Sep-03 20:58N 49°18' W 123°02'0 0.0
2017-Sep-03 20:28N 49°18' W 123°02'0 0.0
2017-Sep-03 19:58N 49°18' W 123°02'0 0.0
2017-Sep-03 19:28N 49°18' W 123°02'0 0.0
2017-Sep-03 18:58N 49°18' W 123°02'0 0.0
2017-Sep-03 18:28N 49°18' W 123°02'0 0.0
2017-Sep-03 17:52N 49°18' W 123°02'0 0.0
2017-Sep-03 17:22N 49°18' W 123°02'0 0.0
2017-Sep-03 16:52N 49°18' W 123°02'0 0.0
2017-Sep-03 16:22N 49°18' W 123°02'0 0.0
2017-Sep-03 15:58N 49°18' W 123°02'0 0.0
2017-Sep-03 15:28N 49°18' W 123°02'0 0.0
2017-Sep-03 14:58N 49°18' W 123°02'0 0.0
2017-Sep-03 13:58N 49°18' W 123°02'0 0.0
2017-Sep-03 13:28N 49°18' W 123°02'0 0.0
2017-Sep-03 12:52N 49°18' W 123°02'0 0.0
2017-Sep-03 12:28N 49°18' W 123°02'0 0.0
2017-Sep-03 11:58N 49°18' W 123°02'0 0.0
2017-Sep-03 11:28N 49°18' W 123°02'0 0.0
2017-Sep-03 10:58N 49°18' W 123°02'0 0.0
2017-Sep-03 10:28N 49°18' W 123°02'0 0.0
2017-Sep-03 09:55N 49°18' W 123°02'0 0.0
2017-Sep-03 09:28N 49°18' W 123°02'0 0.0
2017-Sep-03 08:58N 49°18' W 123°02'0 0.0
2017-Sep-03 08:28N 49°18' W 123°02'0 0.0
2017-Sep-03 07:58N 49°18' W 123°02'0 0.0
2017-Sep-03 07:28N 49°18' W 123°02'0 0.0
2017-Sep-03 06:58N 49°18' W 123°02'0 0.0
2017-Sep-03 06:28N 49°18' W 123°02'0 0.0
2017-Sep-03 04:37N 49°18' W 123°02'0 0.0
2017-Sep-03 04:19N 49°18' W 123°02'0 0.0
2017-Sep-03 03:55N 49°18' W 123°02'0 0.0
2017-Sep-03 01:01N 49°18' W 123°02'0 0.0
2017-Sep-03 00:55N 49°18' W 123°02'0 0.0
2017-Sep-02 23:46N 49°18' W 123°02'0 0.0
2017-Sep-02 23:16N 49°18' W 123°02'0 0.0
2017-Sep-02 22:58N 49°18' W 123°02'0 0.0
2017-Sep-02 22:28N 49°18' W 123°02'0 0.0
2017-Sep-02 21:55N 49°18' W 123°02'0 0.0
2017-Sep-02 20:52N 49°18' W 123°02'0 0.0
2017-Sep-02 20:28N 49°18' W 123°02'0 0.0
2017-Sep-02 19:58N 49°18' W 123°02'0 0.0
2017-Sep-02 19:28N 49°18' W 123°02'0 0.0
2017-Sep-02 18:55N 49°18' W 123°02'0 0.0
2017-Sep-02 18:28N 49°18' W 123°02'0 0.0
2017-Sep-02 17:55N 49°18' W 123°02'0 0.0
2017-Sep-02 17:28N 49°18' W 123°02'0 0.0
2017-Sep-02 16:58N 49°18' W 123°02'0 0.0
2017-Sep-02 16:25N 49°18' W 123°02'0 0.0
2017-Sep-02 15:58N 49°18' W 123°02'0 0.0
2017-Sep-02 15:28N 49°18' W 123°02'0 0.0
2017-Sep-02 14:55N 49°18' W 123°02'0 0.0
2017-Sep-02 14:25N 49°18' W 123°02'0 0.0
2017-Sep-02 13:58N 49°18' W 123°02'0 0.0
2017-Sep-02 13:28N 49°18' W 123°02'0 0.0
2017-Sep-02 12:55N 49°18' W 123°02'0 0.0
2017-Sep-02 12:28N 49°18' W 123°02'0 0.0
2017-Sep-02 11:55N 49°18' W 123°02'0 0.0
2017-Sep-02 11:25N 49°18' W 123°02'0 0.0
2017-Sep-02 10:55N 49°18' W 123°02'0 0.0
2017-Sep-02 10:25N 49°18' W 123°02'0 0.0
2017-Sep-02 09:55N 49°18' W 123°02'0 0.0
2017-Sep-02 09:28N 49°18' W 123°02'0 0.0
2017-Sep-02 08:58N 49°18' W 123°02'0 0.0
2017-Sep-02 08:19N 49°18' W 123°02'0 0.0
2017-Sep-02 07:55N 49°18' W 123°02'0 0.0
2017-Sep-02 07:25N 49°18' W 123°02'0 0.0
2017-Sep-02 06:52N 49°18' W 123°02'0 0.0
2017-Sep-02 06:25N 49°18' W 123°02'0 0.0
2017-Sep-02 05:55N 49°18' W 123°02'0 0.0
2017-Sep-02 05:28N 49°18' W 123°02'0 0.0
2017-Sep-02 04:58N 49°18' W 123°02'0 0.0
2017-Sep-02 04:28N 49°18' W 123°02'0 0.0
2017-Sep-02 03:55N 49°18' W 123°02'0 0.0
2017-Sep-02 03:25N 49°18' W 123°02'0 0.0
2017-Sep-02 02:58N 49°18' W 123°02'0 0.0
2017-Sep-02 02:25N 49°18' W 123°02'0 0.0
2017-Sep-02 01:22N 49°18' W 123°02'0 0.0
2017-Sep-02 00:55N 49°18' W 123°02'0 0.0
2017-Sep-02 00:28N 49°18' W 123°02'0 0.0
2017-Sep-01 23:49N 49°18' W 123°02'0 0.0
2017-Sep-01 23:28N 49°18' W 123°02'0 0.0
2017-Sep-01 22:58N 49°18' W 123°02'0 0.0
2017-Sep-01 22:25N 49°18' W 123°02'0 0.0
2017-Sep-01 21:55N 49°18' W 123°02'0 0.0
2017-Sep-01 21:28N 49°18' W 123°02'0 0.0
2017-Sep-01 20:46N 49°18' W 123°02'0 0.1
2017-Sep-01 20:25N 49°18' W 123°02'0 0.0
2017-Sep-01 19:58N 49°18' W 123°02'0 0.0
2017-Sep-01 19:28N 49°18' W 123°02'0 0.0
2017-Sep-01 18:58N 49°18' W 123°02'0 0.0
2017-Sep-01 18:25N 49°18' W 123°02'0 0.0
2017-Sep-01 17:55N 49°18' W 123°02'0 0.0
2017-Sep-01 17:25N 49°18' W 123°02'0 0.0
2017-Sep-01 16:55N 49°18' W 123°02'0 0.0
2017-Sep-01 16:28N 49°18' W 123°02'0 0.0
2017-Sep-01 15:58N 49°18' W 123°02'0 0.0
2017-Sep-01 15:28N 49°18' W 123°02'0 0.3
2017-Sep-01 15:00N 49°18' W 123°02'3 6.5
2017-Sep-01 14:30N 49°18' W 123°07'510.0
2017-Sep-01 14:00N 49°18' W 123°15'611.5
2017-Sep-01 13:30N 49°14' W 123°20'613.0
2017-Sep-01 13:00N 49°07' W 123°21'612.4
2017-Sep-01 12:30N 49°01' W 123°17'713.4
2017-Sep-01 12:00N 48°57' W 123°09'713.6
2017-Sep-01 11:29N 48°52' W 123°03'511.0
2017-Sep-01 11:00N 48°46' W 123°02'612.6
2017-Sep-01 10:30N 48°43' W 123°10'510.5
2017-Sep-01 10:00N 48°38' W 123°14'612.7
2017-Sep-01 09:30N 48°32' W 123°11'612.9
2017-Sep-01 09:00N 48°26' W 123°10'713.3
2017-Sep-01 08:30N 48°22' W 123°18'3 6.9
2017-Sep-01 08:01N 48°22' W 123°23'1 2.2
2017-Sep-01 07:31N 48°21' W 123°24'3 5.0
2017-Sep-01 07:00N 48°18' W 123°25'3 6.1
2017-Sep-01 06:30N 48°15' W 123°27'3 6.8
2017-Sep-01 06:00N 48°14' W 123°31'4 8.8
2017-Sep-01 05:30N 48°13' W 123°38'510.6
2017-Sep-01 04:59N 48°13' W 123°46'510.4
2017-Sep-01 04:30N 48°13' W 123°53'510.5
2017-Sep-01 04:00N 48°15' W 124°01'611.2
2017-Sep-01 03:30N 48°18' W 124°08'510.9
2017-Sep-01 03:00N 48°20' W 124°16'510.8
2017-Sep-01 02:30N 48°22' W 124°23'510.6
2017-Sep-01 02:00N 48°24' W 124°31'510.4
2017-Sep-01 01:30N 48°27' W 124°38'510.8
2017-Sep-01 01:00N 48°29' W 124°45'510.6
2017-Sep-01 00:30N 48°28' W 124°53'510.9
2017-Sep-01 00:00N 48°28' W 125°01'510.8
2017-Aug-31 23:31N 48°27' W 125°09'510.9
2017-Aug-31 23:00N 48°25' W 125°17'611.0
2017-Aug-31 22:30N 48°23' W 125°24'611.1
2017-Aug-31 22:01N 48°20' W 125°32'611.0
2017-Aug-31 21:30N 48°17' W 125°39'511.0
2017-Aug-31 21:00N 48°15' W 125°46'510.5
2017-Aug-31 20:29N 48°12' W 125°53'510.5
2017-Aug-31 20:00N 48°09' W 125°60'910.3
2017-Aug-31 19:05N 48°05' W 126°12'212.4
2017-Aug-31 18:57N 48°04' W 126°14'2410.5
2017-Aug-31 16:39N 47°41' W 126°25'912.2
2017-Aug-31 15:56N 47°32' W 126°25'812.2
2017-Aug-31 15:17N 47°24' W 126°25'412.7
2017-Aug-31 15:00N 47°21' W 126°25'813.1
2017-Aug-31 14:21N 47°12' W 126°26'512.9
2017-Aug-31 13:56N 47°07' W 126°26'613.1
2017-Aug-31 13:27N 47°01' W 126°26'613.1
2017-Aug-31 13:00N 46°55' W 126°26'713.1
2017-Aug-31 12:29N 46°48' W 126°27'3 4.3
2017-Aug-31 11:53N 46°46' W 126°25'913.6
2017-Aug-31 11:13N 46°55' W 126°25'413.9
2017-Aug-31 10:55N 46°59' W 126°24'1213.9
2017-Aug-31 10:05N 47°11' W 126°24'15 9.4
2017-Aug-31 08:26N 46°55' W 126°25'512.5
2017-Aug-31 08:00N 46°50' W 126°25'712.6
2017-Aug-31 07:27N 46°43' W 126°26'612.8
2017-Aug-31 07:01N 46°37' W 126°26'612.8
2017-Aug-31 06:30N 46°31' W 126°27'5 5.8
2017-Aug-31 05:34N 46°36' W 126°25'113.7
2017-Aug-31 05:30N 46°37' W 126°26'913.8
2017-Aug-31 04:52N 46°46' W 126°25'813.8
2017-Aug-31 04:17N 46°54' W 126°25'913.7
2017-Aug-31 03:39N 47°02' W 126°25'513.5
2017-Aug-31 03:18N 47°07' W 126°24'513.6
2017-Aug-31 02:55N 47°12' W 126°25'2 3.8
2017-Aug-31 02:26N 47°11' W 126°26'612.9
2017-Aug-31 01:56N 47°05' W 126°26'713.0
2017-Aug-31 01:24N 46°58' W 126°25'713.0
2017-Aug-31 00:50N 46°50' W 126°25'14 1.7
2017-Aug-30 16:28N 46°36' W 126°25'713.8
2017-Aug-30 15:58N 46°29' W 126°25'913.6
2017-Aug-30 15:20N 46°20' W 126°25'514.0
2017-Aug-30 14:58N 46°15' W 126°25'714.1
2017-Aug-30 14:30N 46°09' W 126°25'813.8
2017-Aug-30 13:55N 46°01' W 126°25'613.6
2017-Aug-30 13:30N 45°55' W 126°25'713.8
2017-Aug-30 13:00N 45°48' W 126°25'713.9
2017-Aug-30 12:30N 45°41' W 126°25'714.0
2017-Aug-30 12:00N 45°34' W 126°25'813.9
2017-Aug-30 11:28N 45°27' W 126°25'613.9
2017-Aug-30 11:00N 45°20' W 126°25'714.0
2017-Aug-30 10:30N 45°13' W 126°26'713.8
2017-Aug-30 10:00N 45°07' W 126°24'714.0
2017-Aug-30 09:30N 44°60' W 126°24'714.2
2017-Aug-30 09:00N 44°53' W 126°25'714.0
2017-Aug-30 08:30N 44°46' W 126°25'713.7
2017-Aug-30 08:00N 44°39' W 126°26'714.0
2017-Aug-30 07:29N 44°31' W 126°25'814.1
2017-Aug-30 06:57N 44°24' W 126°25'613.6
2017-Aug-30 06:30N 44°18' W 126°25'713.1
2017-Aug-30 06:00N 44°11' W 126°25'713.0
2017-Aug-30 05:28N 44°04' W 126°25'612.6
2017-Aug-30 04:58N 43°58' W 126°25'612.7
2017-Aug-30 04:30N 43°52' W 126°25'912.9
2017-Aug-30 03:47N 43°43' W 126°25'412.5
2017-Aug-30 03:28N 43°39' W 126°25'612.7
2017-Aug-30 03:00N 43°33' W 126°25'1612.8
2017-Aug-30 01:48N 43°17' W 126°25'412.8
2017-Aug-30 01:30N 43°14' W 126°25'1113.0
2017-Aug-30 00:40N 43°03' W 126°25'213.0
2017-Aug-30 00:30N 43°01' W 126°25'1913.0
2017-Aug-29 23:02N 42°42' W 126°25'013.0
2017-Aug-29 23:00N 42°41' W 126°25'910.6
2017-Aug-29 22:10N 42°32' W 126°25'713.5
2017-Aug-29 21:41N 42°26' W 126°25'313.5
2017-Aug-29 21:26N 42°23' W 126°25'1213.1
2017-Aug-29 20:30N 42°10' W 126°25'912.6
2017-Aug-29 19:48N 42°01' W 126°25'412.4
2017-Aug-29 19:30N 41°58' W 126°25'612.4
2017-Aug-29 19:00N 41°51' W 126°25'713.0
2017-Aug-29 18:26N 41°44' W 126°26'613.0
2017-Aug-29 17:58N 41°38' W 126°26'713.1
2017-Aug-29 17:26N 41°31' W 126°26'613.3
2017-Aug-29 17:00N 41°25' W 126°27'713.4
2017-Aug-29 16:27N 41°18' W 126°28'613.6
2017-Aug-29 16:00N 41°12' W 126°28'713.4
2017-Aug-29 15:28N 41°05' W 126°28'613.2
2017-Aug-29 15:00N 40°59' W 126°28'612.7
2017-Aug-29 14:30N 40°52' W 126°27'812.9
2017-Aug-29 13:53N 40°44' W 126°27'513.2
2017-Aug-29 13:30N 40°39' W 126°26'714.1
2017-Aug-29 13:00N 40°32' W 126°25'714.3
2017-Aug-29 12:30N 40°25' W 126°25'714.3
2017-Aug-29 12:00N 40°18' W 126°25'814.5
2017-Aug-29 11:27N 40°10' W 126°25'714.7
2017-Aug-29 10:58N 40°03' W 126°25'714.6
2017-Aug-29 10:30N 39°56' W 126°25'914.5
2017-Aug-29 09:53N 39°47' W 126°25'614.0
2017-Aug-29 09:28N 39°41' W 126°25'714.0
2017-Aug-29 08:57N 39°34' W 126°25'614.3
2017-Aug-29 08:30N 39°28' W 126°25'1014.3
2017-Aug-29 07:49N 39°18' W 126°25'2614.0
2017-Aug-29 05:55N 38°51' W 126°25'714.0
2017-Aug-29 05:24N 38°44' W 126°24'513.9
2017-Aug-29 05:00N 38°38' W 126°25'713.9
2017-Aug-29 04:29N 38°31' W 126°25'714.1
2017-Aug-29 04:00N 38°25' W 126°21'1014.4
2017-Aug-29 03:19N 38°16' W 126°15'514.7
2017-Aug-29 02:59N 38°12' W 126°12'714.6
2017-Aug-29 02:29N 38°06' W 126°07'714.6
2017-Aug-29 02:00N 37°60' W 126°03'714.3
2017-Aug-29 01:30N 37°54' W 125°58'714.6
2017-Aug-29 01:00N 37°48' W 125°53'714.6
2017-Aug-29 00:30N 37°41' W 125°48'714.7
2017-Aug-29 00:00N 37°35' W 125°44'714.8
2017-Aug-28 23:30N 37°29' W 125°39'714.6
2017-Aug-28 23:00N 37°22' W 125°34'714.3
2017-Aug-28 22:30N 37°16' W 125°30'714.2
2017-Aug-28 22:00N 37°10' W 125°25'713.7
2017-Aug-28 21:30N 37°04' W 125°21'713.9
2017-Aug-28 21:00N 36°58' W 125°17'713.9
2017-Aug-28 20:31N 36°52' W 125°12'714.2
2017-Aug-28 20:01N 36°46' W 125°08'713.9
2017-Aug-28 19:30N 36°40' W 125°03'713.9
2017-Aug-28 19:00N 36°34' W 124°59'813.4
2017-Aug-28 18:22N 36°27' W 124°53'513.3
2017-Aug-28 18:00N 36°22' W 124°50'713.6
2017-Aug-28 17:29N 36°16' W 124°46'1213.8
2017-Aug-28 16:38N 36°06' W 124°38'213.9
2017-Aug-28 16:30N 36°05' W 124°37'713.4
2017-Aug-28 16:01N 35°59' W 124°33'713.4
2017-Aug-28 15:31N 35°53' W 124°29'713.2
2017-Aug-28 15:00N 35°47' W 124°25'713.2
2017-Aug-28 14:30N 35°42' W 124°21'713.4
2017-Aug-28 14:00N 35°36' W 124°16'713.8
2017-Aug-28 13:30N 35°30' W 124°12'714.1
2017-Aug-28 13:00N 35°24' W 124°07'714.2
2017-Aug-28 12:30N 35°21' W 123°59'714.2
2017-Aug-28 12:00N 35°18' W 123°51'714.1
2017-Aug-28 11:29N 35°15' W 123°43'714.4
2017-Aug-28 11:00N 35°13' W 123°35'714.4
2017-Aug-28 10:30N 35°10' W 123°27'714.4
2017-Aug-28 10:00N 35°07' W 123°19'714.4
2017-Aug-28 09:30N 35°04' W 123°11'714.3
2017-Aug-28 09:00N 35°01' W 123°03'714.2
2017-Aug-28 08:30N 34°59' W 122°55'714.3
2017-Aug-28 08:00N 34°56' W 122°47'714.3
2017-Aug-28 07:30N 34°53' W 122°39'714.5
2017-Aug-28 07:00N 34°50' W 122°31'714.7
2017-Aug-28 06:30N 34°47' W 122°23'714.5
2017-Aug-28 06:00N 34°44' W 122°15'714.9
2017-Aug-28 05:30N 34°41' W 122°06'  
Track history (hours):
 
Tides and Currents Weather Stations Pressure Air Temp Water Temp Dewpoint Dewpoint Depression Visibility Wind Speed Wind Dir Waves Ship Positions

Argent Gerbera

Last reported at 2017-Sep-07 05:01 UTC. Time now 2017-Sep-22 18:47 UTC.
Position N 48°31' W 126°15'.
Warning: this ship's position is 15 days out of date.

Length 175 m; draft 11.7 m.

Type: Ship (hazmat cat B). MMSI: 538003929.

Date/timePositionNaut miles runAvg speedWind from/ knotsBaromVisibWave heightAir tempDewpointWater temp
2017-Sep-07 05:01N 48°31' W 126°15'113.4
2017-Sep-07 04:58N 48°31' W 126°14'613.5
2017-Sep-07 04:30N 48°32' W 126°05'713.5
2017-Sep-07 04:00N 48°32' W 125°55'713.6
2017-Sep-07 03:31N 48°31' W 125°44'714.0
2017-Sep-07 03:00N 48°31' W 125°34'713.7
2017-Sep-07 02:30N 48°32' W 125°23'713.6
2017-Sep-07 02:00N 48°32' W 125°13'713.3
2017-Sep-07 01:30N 48°31' W 125°03'714.6
2017-Sep-07 01:00N 48°31' W 124°52'713.8
2017-Sep-07 00:30N 48°30' W 124°42'713.5
2017-Sep-07 00:00N 48°28' W 124°33'713.2
2017-Sep-06 23:30N 48°25' W 124°23'612.6
2017-Sep-06 23:00N 48°23' W 124°15'612.1
2017-Sep-06 22:30N 48°20' W 124°06'612.2
2017-Sep-06 22:00N 48°18' W 123°58'612.4
2017-Sep-06 21:30N 48°17' W 123°48'712.7
2017-Sep-06 20:58N 48°16' W 123°38'511.5
2017-Sep-06 20:30N 48°16' W 123°30'611.8
2017-Sep-06 20:00N 48°21' W 123°25'4 8.5
2017-Sep-06 19:31N 48°23' W 123°20'510.7
2017-Sep-06 19:01N 48°25' W 123°12'713.1
2017-Sep-06 18:30N 48°32' W 123°13'713.6
2017-Sep-06 18:01N 48°38' W 123°15'611.6
2017-Sep-06 17:31N 48°43' W 123°11'815.2
2017-Sep-06 17:00N 48°47' W 123°01'612.7
2017-Sep-06 16:31N 48°53' W 123°06'714.0
2017-Sep-06 16:00N 48°57' W 123°14'714.0
2017-Sep-06 15:31N 49°02' W 123°21'612.6
2017-Sep-06 15:01N 49°08' W 123°23'713.5
2017-Sep-06 14:31N 49°15' W 123°21'612.2
2017-Sep-06 14:00N 49°19' W 123°14'510.8
2017-Sep-06 13:31N 49°18' W 123°06'3 5.2
2017-Sep-06 13:01N 49°18' W 123°02'3 5.1
2017-Sep-06 12:31N 49°18' W 122°58'3 5.7
2017-Sep-06 12:00N 49°18' W 122°53'1 1.5
2017-Sep-06 11:29N 49°17' W 122°52'0 0.0
2017-Sep-06 10:59N 49°17' W 122°52'0 0.0
2017-Sep-06 10:29N 49°17' W 122°52'0 0.0
2017-Sep-06 09:59N 49°17' W 122°52'0 0.0
2017-Sep-06 09:29N 49°17' W 122°52'0 0.0
2017-Sep-06 08:59N 49°17' W 122°52'0 0.0
2017-Sep-06 08:26N 49°17' W 122°52'0 0.0
2017-Sep-06 07:59N 49°17' W 122°52'0 0.1
2017-Sep-06 07:29N 49°17' W 122°52'0 0.0
2017-Sep-06 06:59N 49°17' W 122°52'0 0.0
2017-Sep-06 06:29N 49°17' W 122°52'0 0.0
2017-Sep-06 05:56N 49°17' W 122°52'0 0.0
2017-Sep-06 05:29N 49°17' W 122°52'0 0.0
2017-Sep-06 04:59N 49°17' W 122°52'0 0.0
2017-Sep-06 04:26N 49°17' W 122°52'0 0.0
2017-Sep-06 03:53N 49°17' W 122°52'0 0.0
2017-Sep-06 03:29N 49°17' W 122°52'0 0.0
2017-Sep-06 02:59N 49°17' W 122°52'0 0.0
2017-Sep-06 02:26N 49°17' W 122°52'0 0.0
2017-Sep-06 01:59N 49°17' W 122°52'0 0.0
2017-Sep-06 01:29N 49°17' W 122°52'0 0.0
2017-Sep-06 00:59N 49°17' W 122°52'0 0.0
2017-Sep-06 00:29N 49°17' W 122°52'0 0.0
2017-Sep-05 23:50N 49°17' W 122°52'0 0.0
2017-Sep-05 23:23N 49°17' W 122°52'0 0.0
2017-Sep-05 22:59N 49°17' W 122°52'0 0.0
2017-Sep-05 22:26N 49°17' W 122°52'0 0.0
2017-Sep-05 21:59N 49°17' W 122°52'0 0.0
2017-Sep-05 21:26N 49°17' W 122°52'0 0.0
2017-Sep-05 20:56N 49°17' W 122°52'0 0.0
2017-Sep-05 20:29N 49°17' W 122°52'0 0.0
2017-Sep-05 19:56N 49°17' W 122°52'0 0.0
2017-Sep-05 19:29N 49°17' W 122°52'0 0.0
2017-Sep-05 18:56N 49°17' W 122°52'0 0.0
2017-Sep-05 18:26N 49°17' W 122°52'0 0.0
2017-Sep-05 17:59N 49°17' W 122°52'0 0.0
2017-Sep-05 17:29N 49°17' W 122°52'0 0.0
2017-Sep-05 16:59N 49°17' W 122°52'0 0.0
2017-Sep-05 16:29N 49°17' W 122°52'0 0.0
2017-Sep-05 15:59N 49°17' W 122°52'0 0.0
2017-Sep-05 15:29N 49°17' W 122°52'0 0.0
2017-Sep-05 14:59N 49°17' W 122°52'0 0.0
2017-Sep-05 14:29N 49°17' W 122°52'0 0.0
2017-Sep-05 13:59N 49°17' W 122°52'0 0.0
2017-Sep-05 13:29N 49°17' W 122°52'0 0.0
2017-Sep-05 12:59N 49°17' W 122°52'0 0.0
2017-Sep-05 12:26N 49°17' W 122°52'0 0.0
2017-Sep-05 11:59N 49°17' W 122°52'0 0.0
2017-Sep-05 11:26N 49°17' W 122°52'0 0.0
2017-Sep-05 10:59N 49°17' W 122°52'0 0.0
2017-Sep-05 10:29N 49°17' W 122°52'0 0.0
2017-Sep-05 09:59N 49°17' W 122°52'0 0.0
2017-Sep-05 09:29N 49°17' W 122°52'0 0.0
2017-Sep-05 08:59N 49°17' W 122°52'0 0.0
2017-Sep-05 08:26N 49°17' W 122°52'0 0.0
2017-Sep-05 07:56N 49°17' W 122°52'0 0.1
2017-Sep-05 07:26N 49°17' W 122°52'0 0.0
2017-Sep-05 06:56N 49°17' W 122°52'0 0.0
2017-Sep-05 06:29N 49°17' W 122°52'0 0.0
2017-Sep-05 05:59N 49°17' W 122°52'0 0.0
2017-Sep-05 05:29N 49°17' W 122°52'0 0.1
2017-Sep-05 04:59N 49°17' W 122°52'0 0.0
2017-Sep-05 04:26N 49°17' W 122°52'0 0.0
2017-Sep-05 03:59N 49°17' W 122°52'0 0.0
2017-Sep-05 03:20N 49°17' W 122°52'0 0.0
2017-Sep-05 02:56N 49°17' W 122°52'0 0.0
2017-Sep-05 02:26N 49°17' W 122°52'0 0.0
2017-Sep-05 01:59N 49°17' W 122°52'0 0.0
2017-Sep-05 01:26N 49°17' W 122°52'0 0.0
2017-Sep-05 00:56N 49°17' W 122°52'0 0.0
2017-Sep-05 00:26N 49°17' W 122°52'0 0.0
2017-Sep-04 23:56N 49°17' W 122°52'0 0.0
2017-Sep-04 23:26N 49°17' W 122°52'0 0.0
2017-Sep-04 22:56N 49°17' W 122°52'0 0.0
2017-Sep-04 22:23N 49°17' W 122°52'0 0.0
2017-Sep-04 21:56N 49°17' W 122°52'0 0.0
2017-Sep-04 21:26N 49°17' W 122°52'0 0.0
2017-Sep-04 20:56N 49°17' W 122°52'0 0.0
2017-Sep-04 20:29N 49°17' W 122°52'0 0.0
2017-Sep-04 20:00N 49°17' W 122°52'0 0.5
2017-Sep-04 19:30N 49°18' W 122°52'2 4.3
2017-Sep-04 19:00N 49°18' W 122°56'4 7.9
2017-Sep-04 18:30N 49°18' W 123°02'0 0.2
2017-Sep-04 17:52N 49°18' W 123°02'0 0.0
2017-Sep-04 17:28N 49°18' W 123°02'0 0.0
2017-Sep-04 16:46N 49°18' W 123°02'0 0.0
2017-Sep-04 16:25N 49°18' W 123°02'0 0.0
2017-Sep-04 15:58N 49°18' W 123°02'0 0.0
2017-Sep-04 15:28N 49°18' W 123°02'0 0.0
2017-Sep-04 14:55N 49°18' W 123°02'0 0.0
2017-Sep-04 14:28N 49°18' W 123°02'0 0.0
2017-Sep-04 13:49N 49°18' W 123°02'0 0.0
2017-Sep-04 13:28N 49°18' W 123°02'0 0.0
2017-Sep-04 12:43N 49°18' W 123°02'0 0.0
2017-Sep-04 08:55N 49°18' W 123°02'0 0.0
2017-Sep-04 08:25N 49°18' W 123°02'0 0.0
2017-Sep-04 07:55N 49°18' W 123°02'0 0.0
2017-Sep-04 07:25N 49°18' W 123°02'0 0.0
2017-Sep-04 06:58N 49°18' W 123°02'0 0.0
2017-Sep-04 06:28N 49°18' W 123°02'0 0.0
2017-Sep-04 05:52N 49°18' W 123°02'0 0.0
2017-Sep-04 05:01N 49°18' W 123°02'0 0.1
2017-Sep-04 04:55N 49°18' W 123°02'0 0.0
2017-Sep-04 04:25N 49°18' W 123°02'0 0.0
2017-Sep-04 03:55N 49°18' W 123°02'0 0.0
2017-Sep-04 03:25N 49°18' W 123°02'0 0.0
2017-Sep-04 02:58N 49°18' W 123°02'0 0.0
2017-Sep-04 02:25N 49°18' W 123°02'0 0.0
2017-Sep-04 01:58N 49°18' W 123°02'0 0.0
2017-Sep-04 01:25N 49°18' W 123°02'0 0.0
2017-Sep-04 00:52N 49°18' W 123°02'0 0.0
2017-Sep-04 00:25N 49°18' W 123°02'0 0.0
2017-Sep-03 23:58N 49°18' W 123°02'0 0.0
2017-Sep-03 23:28N 49°18' W 123°02'0 0.0
2017-Sep-03 22:58N 49°18' W 123°02'0 0.0
2017-Sep-03 22:28N 49°18' W 123°02'0 0.0
2017-Sep-03 21:49N 49°18' W 123°02'0 0.0
2017-Sep-03 21:28N 49°18' W 123°02'0 0.0
2017-Sep-03 20:58N 49°18' W 123°02'0 0.0
2017-Sep-03 20:28N 49°18' W 123°02'0 0.0
2017-Sep-03 19:58N 49°18' W 123°02'0 0.0
2017-Sep-03 19:28N 49°18' W 123°02'0 0.0
2017-Sep-03 18:58N 49°18' W 123°02'0 0.0
2017-Sep-03 18:28N 49°18' W 123°02'0 0.0
2017-Sep-03 17:52N 49°18' W 123°02'0 0.0
2017-Sep-03 17:22N 49°18' W 123°02'0 0.0
2017-Sep-03 16:52N 49°18' W 123°02'0 0.0
2017-Sep-03 16:22N 49°18' W 123°02'0 0.0
2017-Sep-03 15:58N 49°18' W 123°02'0 0.0
2017-Sep-03 15:28N 49°18' W 123°02'0 0.0
2017-Sep-03 14:58N 49°18' W 123°02'0 0.0
2017-Sep-03 13:58N 49°18' W 123°02'0 0.0
2017-Sep-03 13:28N 49°18' W 123°02'0 0.0
2017-Sep-03 12:52N 49°18' W 123°02'0 0.0
2017-Sep-03 12:28N 49°18' W 123°02'0 0.0
2017-Sep-03 11:58N 49°18' W 123°02'0 0.0
2017-Sep-03 11:28N 49°18' W 123°02'0 0.0
2017-Sep-03 10:58N 49°18' W 123°02'0 0.0
2017-Sep-03 10:28N 49°18' W 123°02'0 0.0
2017-Sep-03 09:55N 49°18' W 123°02'0 0.0
2017-Sep-03 09:28N 49°18' W 123°02'0 0.0
2017-Sep-03 08:58N 49°18' W 123°02'0 0.0
2017-Sep-03 08:28N 49°18' W 123°02'0 0.0
2017-Sep-03 07:58N 49°18' W 123°02'0 0.0
2017-Sep-03 07:28N 49°18' W 123°02'0 0.0
2017-Sep-03 06:58N 49°18' W 123°02'0 0.0
2017-Sep-03 06:28N 49°18' W 123°02'0 0.0
2017-Sep-03 04:37N 49°18' W 123°02'0 0.0
2017-Sep-03 04:19N 49°18' W 123°02'0 0.0
2017-Sep-03 03:55N 49°18' W 123°02'0 0.0
2017-Sep-03 01:01N 49°18' W 123°02'0 0.0
2017-Sep-03 00:55N 49°18' W 123°02'0 0.0
2017-Sep-02 23:46N 49°18' W 123°02'0 0.0
2017-Sep-02 23:16N 49°18' W 123°02'0 0.0
2017-Sep-02 22:58N 49°18' W 123°02'0 0.0
2017-Sep-02 22:28N 49°18' W 123°02'0 0.0
2017-Sep-02 21:55N 49°18' W 123°02'0 0.0
2017-Sep-02 20:52N 49°18' W 123°02'0 0.0
2017-Sep-02 20:28N 49°18' W 123°02'0 0.0
2017-Sep-02 19:58N 49°18' W 123°02'0 0.0
2017-Sep-02 19:28N 49°18' W 123°02'0 0.0
2017-Sep-02 18:55N 49°18' W 123°02'0 0.0
2017-Sep-02 18:28N 49°18' W 123°02'0 0.0
2017-Sep-02 17:55N 49°18' W 123°02'0 0.0
2017-Sep-02 17:28N 49°18' W 123°02'0 0.0
2017-Sep-02 16:58N 49°18' W 123°02'0 0.0
2017-Sep-02 16:25N 49°18' W 123°02'0 0.0
2017-Sep-02 15:58N 49°18' W 123°02'0 0.0
2017-Sep-02 15:28N 49°18' W 123°02'0 0.0
2017-Sep-02 14:55N 49°18' W 123°02'0 0.0
2017-Sep-02 14:25N 49°18' W 123°02'0 0.0
2017-Sep-02 13:58N 49°18' W 123°02'0 0.0
2017-Sep-02 13:28N 49°18' W 123°02'0 0.0
2017-Sep-02 12:55N 49°18' W 123°02'0 0.0
2017-Sep-02 12:28N 49°18' W 123°02'0 0.0
2017-Sep-02 11:55N 49°18' W 123°02'0 0.0
2017-Sep-02 11:25N 49°18' W 123°02'0 0.0
2017-Sep-02 10:55N 49°18' W 123°02'0 0.0
2017-Sep-02 10:25N 49°18' W 123°02'0 0.0
2017-Sep-02 09:55N 49°18' W 123°02'0 0.0
2017-Sep-02 09:28N 49°18' W 123°02'0 0.0
2017-Sep-02 08:58N 49°18' W 123°02'0 0.0
2017-Sep-02 08:19N 49°18' W 123°02'0 0.0
2017-Sep-02 07:55N 49°18' W 123°02'0 0.0
2017-Sep-02 07:25N 49°18' W 123°02'0 0.0
2017-Sep-02 06:52N 49°18' W 123°02'0 0.0
2017-Sep-02 06:25N 49°18' W 123°02'0 0.0
2017-Sep-02 05:55N 49°18' W 123°02'0 0.0
2017-Sep-02 05:28N 49°18' W 123°02'0 0.0
2017-Sep-02 04:58N 49°18' W 123°02'0 0.0
2017-Sep-02 04:28N 49°18' W 123°02'0 0.0
2017-Sep-02 03:55N 49°18' W 123°02'0 0.0
2017-Sep-02 03:25N 49°18' W 123°02'0 0.0
2017-Sep-02 02:58N 49°18' W 123°02'0 0.0
2017-Sep-02 02:25N 49°18' W 123°02'0 0.0
2017-Sep-02 01:22N 49°18' W 123°02'0 0.0
2017-Sep-02 00:55N 49°18' W 123°02'0 0.0
2017-Sep-02 00:28N 49°18' W 123°02'0 0.0
2017-Sep-01 23:49N 49°18' W 123°02'0 0.0
2017-Sep-01 23:28N 49°18' W 123°02'0 0.0
2017-Sep-01 22:58N 49°18' W 123°02'0 0.0
2017-Sep-01 22:25N 49°18' W 123°02'0 0.0
2017-Sep-01 21:55N 49°18' W 123°02'0 0.0
2017-Sep-01 21:28N 49°18' W 123°02'0 0.0
2017-Sep-01 20:46N 49°18' W 123°02'0 0.1
2017-Sep-01 20:25N 49°18' W 123°02'0 0.0
2017-Sep-01 19:58N 49°18' W 123°02'0 0.0
2017-Sep-01 19:28N 49°18' W 123°02'0 0.0
2017-Sep-01 18:58N 49°18' W 123°02'0 0.0
2017-Sep-01 18:25N 49°18' W 123°02'0 0.0
2017-Sep-01 17:55N 49°18' W 123°02'0 0.0
2017-Sep-01 17:25N 49°18' W 123°02'0 0.0
2017-Sep-01 16:55N 49°18' W 123°02'0 0.0
2017-Sep-01 16:28N 49°18' W 123°02'0 0.0
2017-Sep-01 15:58N 49°18' W 123°02'0 0.0
2017-Sep-01 15:28N 49°18' W 123°02'0 0.3
2017-Sep-01 15:00N 49°18' W 123°02'3 6.5
2017-Sep-01 14:30N 49°18' W 123°07'510.0
2017-Sep-01 14:00N 49°18' W 123°15'611.5
2017-Sep-01 13:30N 49°14' W 123°20'613.0
2017-Sep-01 13:00N 49°07' W 123°21'612.4
2017-Sep-01 12:30N 49°01' W 123°17'713.4
2017-Sep-01 12:00N 48°57' W 123°09'713.6
2017-Sep-01 11:29N 48°52' W 123°03'511.0
2017-Sep-01 11:00N 48°46' W 123°02'612.6
2017-Sep-01 10:30N 48°43' W 123°10'510.5
2017-Sep-01 10:00N 48°38' W 123°14'612.7
2017-Sep-01 09:30N 48°32' W 123°11'612.9
2017-Sep-01 09:00N 48°26' W 123°10'713.3
2017-Sep-01 08:30N 48°22' W 123°18'3 6.9
2017-Sep-01 08:01N 48°22' W 123°23'1 2.2
2017-Sep-01 07:31N 48°21' W 123°24'3 5.0
2017-Sep-01 07:00N 48°18' W 123°25'3 6.1
2017-Sep-01 06:30N 48°15' W 123°27'3 6.8
2017-Sep-01 06:00N 48°14' W 123°31'4 8.8
2017-Sep-01 05:30N 48°13' W 123°38'510.6
2017-Sep-01 04:59N 48°13' W 123°46'510.4
2017-Sep-01 04:30N 48°13' W 123°53'510.5
2017-Sep-01 04:00N 48°15' W 124°01'611.2
2017-Sep-01 03:30N 48°18' W 124°08'510.9
2017-Sep-01 03:00N 48°20' W 124°16'510.8
2017-Sep-01 02:30N 48°22' W 124°23'510.6
2017-Sep-01 02:00N 48°24' W 124°31'510.4
2017-Sep-01 01:30N 48°27' W 124°38'510.8
2017-Sep-01 01:00N 48°29' W 124°45'510.6
2017-Sep-01 00:30N 48°28' W 124°53'510.9
2017-Sep-01 00:00N 48°28' W 125°01'510.8
2017-Aug-31 23:31N 48°27' W 125°09'510.9
2017-Aug-31 23:00N 48°25' W 125°17'611.0
2017-Aug-31 22:30N 48°23' W 125°24'611.1
2017-Aug-31 22:01N 48°20' W 125°32'611.0
2017-Aug-31 21:30N 48°17' W 125°39'511.0
2017-Aug-31 21:00N 48°15' W 125°46'510.5
2017-Aug-31 20:29N 48°12' W 125°53'510.5
2017-Aug-31 20:00N 48°09' W 125°60'910.3
2017-Aug-31 19:05N 48°05' W 126°12'212.4
2017-Aug-31 18:57N 48°04' W 126°14'2410.5
2017-Aug-31 16:39N 47°41' W 126°25'912.2
2017-Aug-31 15:56N 47°32' W 126°25'812.2
2017-Aug-31 15:17N 47°24' W 126°25'412.7
2017-Aug-31 15:00N 47°21' W 126°25'813.1
2017-Aug-31 14:21N 47°12' W 126°26'512.9
2017-Aug-31 13:56N 47°07' W 126°26'613.1
2017-Aug-31 13:27N 47°01' W 126°26'613.1
2017-Aug-31 13:00N 46°55' W 126°26'713.1
2017-Aug-31 12:29N 46°48' W 126°27'3 4.3
2017-Aug-31 11:53N 46°46' W 126°25'913.6
2017-Aug-31 11:13N 46°55' W 126°25'413.9
2017-Aug-31 10:55N 46°59' W 126°24'1213.9
2017-Aug-31 10:05N 47°11' W 126°24'15 9.4
2017-Aug-31 08:26N 46°55' W 126°25'512.5
2017-Aug-31 08:00N 46°50' W 126°25'712.6
2017-Aug-31 07:27N 46°43' W 126°26'612.8
2017-Aug-31 07:01N 46°37' W 126°26'612.8
2017-Aug-31 06:30N 46°31' W 126°27'5 5.8
2017-Aug-31 05:34N 46°36' W 126°25'113.7
2017-Aug-31 05:30N 46°37' W 126°26'913.8
2017-Aug-31 04:52N 46°46' W 126°25'813.8
2017-Aug-31 04:17N 46°54' W 126°25'913.7
2017-Aug-31 03:39N 47°02' W 126°25'513.5
2017-Aug-31 03:18N 47°07' W 126°24'513.6
2017-Aug-31 02:55N 47°12' W 126°25'2 3.8
2017-Aug-31 02:26N 47°11' W 126°26'612.9
2017-Aug-31 01:56N 47°05' W 126°26'713.0
2017-Aug-31 01:24N 46°58' W 126°25'713.0
2017-Aug-31 00:50N 46°50' W 126°25'14 1.7
2017-Aug-30 16:28N 46°36' W 126°25'713.8
2017-Aug-30 15:58N 46°29' W 126°25'913.6
2017-Aug-30 15:20N 46°20' W 126°25'514.0
2017-Aug-30 14:58N 46°15' W 126°25'714.1
2017-Aug-30 14:30N 46°09' W 126°25'813.8
2017-Aug-30 13:55N 46°01' W 126°25'613.6
2017-Aug-30 13:30N 45°55' W 126°25'713.8
2017-Aug-30 13:00N 45°48' W 126°25'713.9
2017-Aug-30 12:30N 45°41' W 126°25'714.0
2017-Aug-30 12:00N 45°34' W 126°25'813.9
2017-Aug-30 11:28N 45°27' W 126°25'613.9
2017-Aug-30 11:00N 45°20' W 126°25'714.0
2017-Aug-30 10:30N 45°13' W 126°26'713.8
2017-Aug-30 10:00N 45°07' W 126°24'714.0
2017-Aug-30 09:30N 44°60' W 126°24'714.2
2017-Aug-30 09:00N 44°53' W 126°25'714.0
2017-Aug-30 08:30N 44°46' W 126°25'713.7
2017-Aug-30 08:00N 44°39' W 126°26'714.0
2017-Aug-30 07:29N 44°31' W 126°25'814.1
2017-Aug-30 06:57N 44°24' W 126°25'613.6
2017-Aug-30 06:30N 44°18' W 126°25'713.1
2017-Aug-30 06:00N 44°11' W 126°25'713.0
2017-Aug-30 05:28N 44°04' W 126°25'612.6
2017-Aug-30 04:58N 43°58' W 126°25'612.7
2017-Aug-30 04:30N 43°52' W 126°25'912.9
2017-Aug-30 03:47N 43°43' W 126°25'412.5
2017-Aug-30 03:28N 43°39' W 126°25'612.7
2017-Aug-30 03:00N 43°33' W 126°25'1612.8
2017-Aug-30 01:48N 43°17' W 126°25'412.8
2017-Aug-30 01:30N 43°14' W 126°25'1113.0
2017-Aug-30 00:40N 43°03' W 126°25'213.0
2017-Aug-30 00:30N 43°01' W 126°25'1913.0
2017-Aug-29 23:02N 42°42' W 126°25'013.0
2017-Aug-29 23:00N 42°41' W 126°25'910.6
2017-Aug-29 22:10N 42°32' W 126°25'713.5
2017-Aug-29 21:41N 42°26' W 126°25'313.5
2017-Aug-29 21:26N 42°23' W 126°25'1213.1
2017-Aug-29 20:30N 42°10' W 126°25'912.6
2017-Aug-29 19:48N 42°01' W 126°25'412.4
2017-Aug-29 19:30N 41°58' W 126°25'612.4
2017-Aug-29 19:00N 41°51' W 126°25'713.0
2017-Aug-29 18:26N 41°44' W 126°26'613.0
2017-Aug-29 17:58N 41°38' W 126°26'713.1
2017-Aug-29 17:26N 41°31' W 126°26'613.3
2017-Aug-29 17:00N 41°25' W 126°27'713.4
2017-Aug-29 16:27N 41°18' W 126°28'613.6
2017-Aug-29 16:00N 41°12' W 126°28'713.4
2017-Aug-29 15:28N 41°05' W 126°28'613.2
2017-Aug-29 15:00N 40°59' W 126°28'612.7
2017-Aug-29 14:30N 40°52' W 126°27'812.9
2017-Aug-29 13:53N 40°44' W 126°27'513.2
2017-Aug-29 13:30N 40°39' W 126°26'714.1
2017-Aug-29 13:00N 40°32' W 126°25'714.3
2017-Aug-29 12:30N 40°25' W 126°25'714.3
2017-Aug-29 12:00N 40°18' W 126°25'814.5
2017-Aug-29 11:27N 40°10' W 126°25'714.7
2017-Aug-29 10:58N 40°03' W 126°25'714.6
2017-Aug-29 10:30N 39°56' W 126°25'914.5
2017-Aug-29 09:53N 39°47' W 126°25'614.0
2017-Aug-29 09:28N 39°41' W 126°25'714.0
2017-Aug-29 08:57N 39°34' W 126°25'614.3
2017-Aug-29 08:30N 39°28' W 126°25'1014.3
2017-Aug-29 07:49N 39°18' W 126°25'2614.0
2017-Aug-29 05:55N 38°51' W 126°25'714.0
2017-Aug-29 05:24N 38°44' W 126°24'513.9
2017-Aug-29 05:00N 38°38' W 126°25'713.9
2017-Aug-29 04:29N 38°31' W 126°25'714.1
2017-Aug-29 04:00N 38°25' W 126°21'1014.4
2017-Aug-29 03:19N 38°16' W 126°15'514.7
2017-Aug-29 02:59N 38°12' W 126°12'714.6
2017-Aug-29 02:29N 38°06' W 126°07'714.6
2017-Aug-29 02:00N 37°60' W 126°03'714.3
2017-Aug-29 01:30N 37°54' W 125°58'714.6
2017-Aug-29 01:00N 37°48' W 125°53'714.6
2017-Aug-29 00:30N 37°41' W 125°48'714.7
2017-Aug-29 00:00N 37°35' W 125°44'714.8
2017-Aug-28 23:30N 37°29' W 125°39'714.6
2017-Aug-28 23:00N 37°22' W 125°34'714.3
2017-Aug-28 22:30N 37°16' W 125°30'714.2
2017-Aug-28 22:00N 37°10' W 125°25'713.7
2017-Aug-28 21:30N 37°04' W 125°21'713.9
2017-Aug-28 21:00N 36°58' W 125°17'713.9
2017-Aug-28 20:31N 36°52' W 125°12'714.2
2017-Aug-28 20:01N 36°46' W 125°08'713.9
2017-Aug-28 19:30N 36°40' W 125°03'713.9
2017-Aug-28 19:00N 36°34' W 124°59'813.4
2017-Aug-28 18:22N 36°27' W 124°53'513.3
2017-Aug-28 18:00N 36°22' W 124°50'713.6
2017-Aug-28 17:29N 36°16' W 124°46'1213.8
2017-Aug-28 16:38N 36°06' W 124°38'213.9
2017-Aug-28 16:30N 36°05' W 124°37'713.4
2017-Aug-28 16:01N 35°59' W 124°33'713.4
2017-Aug-28 15:31N 35°53' W 124°29'713.2
2017-Aug-28 15:00N 35°47' W 124°25'713.2
2017-Aug-28 14:30N 35°42' W 124°21'713.4
2017-Aug-28 14:00N 35°36' W 124°16'713.8
2017-Aug-28 13:30N 35°30' W 124°12'714.1
2017-Aug-28 13:00N 35°24' W 124°07'714.2
2017-Aug-28 12:30N 35°21' W 123°59'714.2
2017-Aug-28 12:00N 35°18' W 123°51'714.1
2017-Aug-28 11:29N 35°15' W 123°43'714.4
2017-Aug-28 11:00N 35°13' W 123°35'714.4
2017-Aug-28 10:30N 35°10' W 123°27'714.4
2017-Aug-28 10:00N 35°07' W 123°19'714.4
2017-Aug-28 09:30N 35°04' W 123°11'714.3
2017-Aug-28 09:00N 35°01' W 123°03'714.2
2017-Aug-28 08:30N 34°59' W 122°55'714.3
2017-Aug-28 08:00N 34°56' W 122°47'714.3
2017-Aug-28 07:30N 34°53' W 122°39'714.5
2017-Aug-28 07:00N 34°50' W 122°31'714.7
2017-Aug-28 06:30N 34°47' W 122°23'714.5
2017-Aug-28 06:00N 34°44' W 122°15'714.9
2017-Aug-28 05:30N 34°41' W 122°06'  

Dump ship's entire track history